Time;durP1;ratioP1;P1;durP2;ratioP2;P2;SDS_P1;SDS_P2;PMS_P1;PMS_P2;Temp;Humidity;BMP_temperature;BMP_pressure;BME280_temperature;BME280_humidity;BME280_pressure;Samples;Min_cycle;Max_cycle;Signal;HPM_P1;HPM_P2
2023/09/24 00:02:04;;;;;;;2.72;2.53;;;9.50;99.90;;;10.27;100.00;98667.84;10447692;28;20252;-77
2023/09/24 00:07:07;;;;;;;2.60;2.40;;;9.50;99.90;;;10.21;100.00;98668.25;10446755;28;20757;-77
2023/09/24 00:12:10;;;;;;;3.20;2.90;;;9.40;99.90;;;10.13;100.00;98677.06;10450215;28;20780;-77
2023/09/24 00:17:16;;;;;;;2.80;2.60;;;9.30;99.90;;;10.17;100.00;98681.63;10447542;28;20225;-78
2023/09/24 00:22:19;;;;;;;2.80;2.60;;;9.40;99.90;;;10.06;100.00;98677.41;10450499;28;20237;-78
2023/09/24 00:27:23;;;;;;;3.35;3.05;;;9.30;99.90;;;10.12;100.00;98682.94;10448830;28;20260;-77
2023/09/24 00:32:28;;;;;;;3.20;2.85;;;9.30;99.90;;;10.05;100.00;98679.06;10441382;28;20251;-77
2023/09/24 00:37:33;;;;;;;3.88;2.60;;;9.30;99.90;;;9.97;100.00;98681.84;10443468;28;20263;-77
2023/09/24 00:42:36;;;;;;;3.00;2.70;;;9.20;99.90;;;9.90;100.00;98700.91;10449863;28;20259;-78
2023/09/24 00:47:45;;;;;;;3.22;2.55;;;9.10;99.90;;;9.87;100.00;98699.06;10450216;28;20291;-77
2023/09/24 00:52:50;;;;;;;2.73;2.30;;;9.10;99.90;;;9.77;100.00;98700.81;10452357;28;20272;-78
2023/09/24 00:57:54;;;;;;;3.03;2.63;;;9.00;99.90;;;9.73;100.00;98704.81;10454588;28;20225;-78
2023/09/24 01:02:59;;;;;;;2.93;2.67;;;8.90;99.90;;;9.62;100.00;98705.69;10444198;28;20220;-77
2023/09/24 01:08:05;;;;;;;3.30;3.10;;;8.80;99.90;;;9.47;100.00;98713.97;10445086;28;20226;-78
2023/09/24 01:13:08;;;;;;;4.37;2.57;;;8.70;99.90;;;9.36;100.00;98719.03;10451033;28;20252;-77
2023/09/24 01:18:13;;;;;;;3.40;2.50;;;8.60;99.90;;;9.52;100.00;98709.19;10453262;28;20218;-77
2023/09/24 01:23:18;;;;;;;3.00;2.73;;;8.70;99.90;;;9.44;100.00;98718.84;10441966;28;20213;-76
2023/09/24 01:28:21;;;;;;;4.13;2.53;;;8.70;99.90;;;9.31;100.00;98721.25;10462749;28;20652;-78
2023/09/24 01:33:24;;;;;;;3.00;2.78;;;8.60;99.90;;;9.31;100.00;98717.81;10442542;28;20316;-76
2023/09/24 01:38:29;;;;;;;5.22;3.13;;;8.50;99.90;;;9.23;100.00;98718.09;10451305;28;20649;-77
2023/09/24 01:43:33;;;;;;;5.27;3.07;;;8.50;99.90;;;9.17;100.00;98719.31;10457415;28;20291;-77
2023/09/24 01:48:36;;;;;;;2.93;2.80;;;8.50;99.90;;;9.26;100.00;98735.31;10448591;28;20308;-77
2023/09/24 01:53:42;;;;;;;3.27;3.03;;;8.50;99.90;;;9.20;100.00;98739.94;10455902;28;20309;-77
2023/09/24 01:58:46;;;;;;;2.87;2.67;;;8.50;99.90;;;9.18;100.00;98738.91;10446028;28;20220;-78
2023/09/24 02:03:49;;;;;;;3.90;3.50;;;8.40;99.90;;;9.11;100.00;98736.69;10447882;28;20859;-77
2023/09/24 02:08:55;;;;;;;3.03;2.63;;;8.30;99.90;;;9.08;100.00;98731.34;10460084;28;20752;-77
2023/09/24 02:13:58;;;;;;;3.90;3.13;;;8.30;99.90;;;9.06;100.00;98738.00;10438954;28;20221;-77
2023/09/24 02:19:02;;;;;;;3.63;3.33;;;8.30;99.90;;;9.07;100.00;98744.84;10450868;28;20317;-78
2023/09/24 02:24:08;;;;;;;3.13;2.93;;;8.30;99.90;;;9.07;100.00;98739.75;10444950;28;20344;-78
2023/09/24 02:29:12;;;;;;;2.97;2.67;;;8.30;99.90;;;9.00;100.00;98743.50;10453413;28;20235;-78
2023/09/24 02:34:15;;;;;;;3.57;2.97;;;8.30;99.90;;;8.89;100.00;98745.22;10449676;28;20271;-78
2023/09/24 02:39:22;;;;;;;4.17;3.03;;;8.20;99.90;;;8.94;100.00;98760.88;10454686;28;20233;-79
2023/09/24 02:44:26;;;;;;;4.17;3.60;;;8.20;99.90;;;8.82;100.00;98755.72;10444118;28;20225;-78
2023/09/24 02:49:29;;;;;;;3.53;3.23;;;8.10;99.90;;;8.88;100.00;98752.75;10456273;28;20228;-78
2023/09/24 02:54:34;;;;;;;3.60;3.30;;;8.20;99.90;;;8.89;100.00;98760.50;10449019;28;20233;-79
2023/09/24 02:59:37;;;;;;;3.70;3.40;;;8.10;99.90;;;8.83;100.00;98761.69;10452630;28;20644;-78
2023/09/24 03:04:41;;;;;;;3.90;3.17;;;8.10;99.90;;;8.77;100.00;98764.66;10458818;28;20221;-77
2023/09/24 03:09:46;;;;;;;3.83;3.47;;;8.00;99.90;;;8.73;100.00;98783.03;10451039;28;20267;-78
2023/09/24 03:14:49;;;;;;;3.43;3.23;;;8.00;99.90;;;8.71;100.00;98788.00;10446862;28;20229;-79
2023/09/24 03:19:52;;;;;;;3.10;2.90;;;8.00;99.90;;;8.73;100.00;98794.13;10453100;28;20231;-79
2023/09/24 03:24:57;;;;;;;3.47;3.27;;;8.00;99.90;;;8.66;100.00;98796.94;10443285;28;20780;-79
2023/09/24 03:30:00;;;;;;;3.97;3.40;;;7.90;99.90;;;8.55;100.00;98787.53;10451210;28;20230;-79
2023/09/24 03:35:06;;;;;;;3.50;3.20;;;7.80;99.90;;;8.50;100.00;98787.19;10465039;28;20287;-80
2023/09/24 03:40:15;;;;;;;4.23;3.73;;;7.80;99.90;;;8.44;100.00;98804.53;10453131;28;20221;-79
2023/09/24 03:45:19;;;;;;;4.13;3.80;;;7.80;99.90;;;8.47;100.00;98808.97;10456931;28;20212;-78
2023/09/24 03:50:23;;;;;;;3.60;3.30;;;7.80;99.90;;;8.53;100.00;98815.47;10453599;28;20239;-78
2023/09/24 03:55:30;;;;;;;3.30;3.10;;;7.80;99.90;;;8.44;100.00;98824.00;10463946;28;20624;-79
2023/09/24 04:00:33;;;;;;;3.00;2.80;;;7.60;99.90;;;8.40;100.00;98827.97;10450090;28;20226;-78
2023/09/24 04:05:37;;;;;;;4.10;3.80;;;7.60;99.90;;;8.32;100.00;98839.16;10449659;28;20229;-79
2023/09/24 04:10:41;;;;;;;3.63;3.33;;;7.60;99.90;;;8.33;100.00;98846.06;10463503;28;20221;-79
2023/09/24 04:15:45;;;;;;;4.13;3.60;;;7.60;99.90;;;8.34;100.00;98847.81;10459888;28;20260;-78
2023/09/24 04:20:48;;;;;;;3.63;3.33;;;7.60;99.90;;;8.18;100.00;98849.88;10455820;28;20235;-79
2023/09/24 04:25:54;;;;;;;4.00;3.63;;;7.50;99.90;;;8.18;100.00;98860.06;10456928;28;20689;-77
2023/09/24 04:30:57;;;;;;;3.80;3.37;;;7.50;99.90;;;8.22;100.00;98864.66;10451964;28;20287;-78
2023/09/24 04:36:00;;;;;;;3.53;3.23;;;7.50;99.90;;;8.12;100.00;98871.50;10450442;28;20660;-78
2023/09/24 04:41:05;;;;;;;3.50;3.30;;;7.30;99.90;;;8.12;100.00;98861.31;10452814;28;20228;-78
2023/09/24 04:46:09;;;;;;;3.77;3.47;;;7.40;99.90;;;8.07;100.00;98875.34;10455393;28;20221;-78
2023/09/24 04:51:12;;;;;;;3.93;3.63;;;7.30;99.90;;;7.99;100.00;98886.56;10458834;28;20234;-78
2023/09/24 04:56:17;;;;;;;3.50;3.20;;;7.20;99.90;;;7.87;100.00;98881.34;10466188;28;20290;-77
2023/09/24 05:01:20;;;;;;;3.93;3.50;;;7.10;99.90;;;7.74;100.00;98881.06;10462168;28;20233;-78
2023/09/24 05:06:24;;;;;;;4.63;4.23;;;7.10;99.90;;;7.72;100.00;98886.75;10458554;28;20240;-78
2023/09/24 05:11:29;;;;;;;4.57;4.17;;;7.10;99.90;;;7.92;100.00;98889.31;10460021;28;20266;-78
2023/09/24 05:16:32;;;;;;;4.30;4.00;;;7.20;99.90;;;7.91;100.00;98900.28;10452136;28;20230;-77
2023/09/24 05:21:35;;;;;;;4.90;4.60;;;7.30;99.90;;;7.98;100.00;98907.66;10447862;28;20232;-76
2023/09/24 05:26:40;;;;;;;4.40;4.00;;;7.30;99.90;;;8.02;100.00;98909.72;10451067;28;20229;-76
2023/09/24 05:31:43;;;;;;;4.93;4.43;;;7.30;99.90;;;8.15;100.00;98906.53;10452766;28;20328;-78
2023/09/24 05:36:51;;;;;;;4.57;4.20;;;7.40;99.90;;;8.15;100.00;98905.63;10452069;28;20232;-79
2023/09/24 05:41:56;;;;;;;4.47;4.07;;;7.40;99.90;;;8.16;100.00;98912.53;10461367;28;20237;-79
2023/09/24 05:46:59;;;;;;;4.00;3.70;;;7.40;99.90;;;8.12;100.00;98912.25;10455659;28;20235;-78
2023/09/24 05:52:03;;;;;;;4.50;4.20;;;7.40;99.90;;;8.26;100.00;98918.50;10456857;28;20237;-78
2023/09/24 05:57:08;;;;;;;4.27;3.97;;;7.50;99.90;;;8.37;100.00;98921.06;10444156;28;20892;-78
2023/09/24 06:02:12;;;;;;;4.13;3.70;;;7.60;99.90;;;8.34;100.00;98926.78;10444735;28;20256;-77
2023/09/24 06:07:15;;;;;;;4.03;3.73;;;7.60;99.90;;;8.48;100.00;98936.50;10452354;28;20259;-78
2023/09/24 06:12:21;;;;;;;4.50;4.10;;;7.80;99.90;;;8.81;100.00;98932.34;10445901;28;20278;-78
2023/09/24 06:17:25;;;;;;;3.97;3.67;;;8.00;99.90;;;9.45;100.00;98934.97;10437216;28;20235;-77
2023/09/24 06:22:29;;;;;;;3.50;3.30;;;8.70;99.90;;;10.15;99.34;98923.28;10443655;28;20312;-77
2023/09/24 06:27:33;;;;;;;3.78;3.45;;;9.30;99.90;;;10.71;94.61;98924.13;10443943;28;20270;-76
2023/09/24 06:32:37;;;;;;;5.57;3.65;;;9.70;99.90;;;11.47;91.07;98932.97;10453127;28;20233;-78
2023/09/24 06:37:41;;;;;;;4.38;3.30;;;10.10;99.90;;;12.31;85.39;98930.28;10454278;28;20232;-82
2023/09/24 06:42:45;;;;;;;3.53;3.33;;;10.70;99.90;;;13.16;80.84;98931.56;10449127;28;20230;-81
2023/09/24 06:47:49;;;;;;;3.53;3.22;;;11.10;99.90;;;13.51;77.17;98934.75;10464697;28;20243;-81
2023/09/24 06:52:52;;;;;;;3.42;3.13;;;11.30;99.90;;;13.82;73.96;98940.88;10460644;28;20216;-81
2023/09/24 06:57:57;;;;;;;3.45;3.03;;;11.70;99.90;;;13.61;77.04;98936.19;10441440;28;20728;-82
2023/09/24 07:03:00;;;;;;;3.95;3.33;;;12.10;99.90;;;13.59;78.18;98936.88;10458899;28;20217;-81
2023/09/24 07:08:04;;;;;;;5.30;3.30;;;12.30;99.90;;;13.07;76.57;98927.63;10457487;28;20232;-81
2023/09/24 07:13:09;;;;;;;3.92;3.40;;;12.00;99.90;;;13.77;78.34;98938.06;10460107;28;20225;-81
2023/09/24 07:18:12;;;;;;;4.10;3.65;;;12.70;99.90;;;14.15;77.56;98931.78;10472892;28;20283;-81
2023/09/24 07:23:17;;;;;;;3.45;3.13;;;13.10;99.90;;;14.34;77.08;98944.97;10460039;28;20220;-83
2023/09/24 07:28:24;;;;;;;3.80;3.50;;;13.30;99.90;;;14.64;77.57;98939.88;10462170;28;20229;-81
2023/09/24 07:33:28;;;;;;;3.63;3.40;;;13.60;99.90;;;14.91;76.43;98935.44;10442691;28;20226;-81
2023/09/24 07:38:31;;;;;;;4.05;3.60;;;13.90;99.90;;;15.08;75.58;98939.88;10448391;28;20225;-81
2023/09/24 07:43:37;;;;;;;3.97;3.60;;;14.20;99.90;;;15.50;75.17;98937.00;10448662;28;20283;-80
2023/09/24 07:48:40;;;;;;;3.53;3.20;;;14.70;99.90;;;15.66;73.42;98937.06;10452087;28;20304;-81
2023/09/24 07:53:44;;;;;;;3.70;3.00;;;14.80;99.90;;;16.26;71.59;98932.53;10450225;28;20229;-82
2023/09/24 07:58:49;;;;;;;3.40;3.10;;;15.50;99.90;;;16.55;70.93;98933.13;10448021;28;20276;-81
2023/09/24 08:03:52;;;;;;;3.13;2.92;;;15.90;99.90;;;16.67;71.20;98939.78;10426003;28;20276;-79
2023/09/24 08:08:56;;;;;;;4.22;3.10;;;15.90;99.90;;;16.99;71.06;98940.53;10430776;28;20224;-81
2023/09/24 08:14:21;;;;;;;3.35;3.05;;;16.20;99.90;;;17.24;68.99;98941.75;10422333;28;20232;-81
2023/09/24 08:19:30;;;;;;;5.05;3.22;;;16.40;99.90;;;17.43;69.17;98939.25;10447641;28;20237;-82
2023/09/24 08:24:33;;;;;;;3.30;3.00;;;16.70;99.90;;;17.60;68.36;98934.88;10448568;28;20220;-82
2023/09/24 08:29:38;;;;;;;3.28;2.97;;;16.80;99.90;;;17.58;68.01;98938.19;10445054;28;20220;-81
2023/09/24 08:34:41;;;;;;;3.15;2.47;;;16.90;99.90;;;18.09;66.86;98936.25;10450461;28;20223;-82
2023/09/24 08:39:47;;;;;;;3.30;2.63;;;17.30;99.90;;;18.37;65.37;98936.66;10456321;28;20282;-81
2023/09/24 08:45:08;;;;;;;4.10;3.15;;;17.70;99.90;;;18.52;63.47;98935.53;10454221;28;20225;-81
2023/09/24 08:50:15;;;;;;;3.65;2.58;;;17.80;99.90;;;18.76;62.39;98934.00;10450114;28;20225;-82
2023/09/24 08:55:18;;;;;;;3.13;2.60;;;18.20;99.90;;;19.14;60.50;98939.88;10461759;28;20225;-82
2023/09/24 09:00:23;;;;;;;3.00;2.53;;;18.50;99.90;;;19.20;62.38;98940.16;10439326;28;20243;-80
2023/09/24 09:05:27;;;;;;;2.60;2.33;;;18.50;99.90;;;19.41;59.98;98944.44;10447705;28;20259;-81
2023/09/24 09:10:32;;;;;;;3.10;2.70;;;18.80;99.90;;;19.50;59.94;98934.41;10439558;28;20245;-83
2023/09/24 09:15:39;;;;;;;3.33;2.13;;;18.90;99.90;;;19.74;58.85;98930.22;10445729;28;20229;-82
2023/09/24 09:20:45;;;;;;;2.75;2.25;;;19.10;99.90;;;19.72;59.08;98926.66;10441819;28;20227;-82
2023/09/24 09:25:52;;;;;;;4.10;2.50;;;19.10;99.90;;;19.86;57.69;98927.19;10444358;28;20252;-81
2023/09/24 09:31:05;;;;;;;4.25;2.38;;;19.20;99.90;;;19.89;56.70;98923.84;10455907;28;20224;-81
2023/09/24 09:36:23;;;;;;;2.55;2.15;;;19.20;99.90;;;20.00;55.17;98919.91;10449863;28;20229;-80
2023/09/24 09:41:27;;;;;;;3.60;2.78;;;19.40;99.90;;;19.90;55.42;98921.28;10459186;28;20800;-82
2023/09/24 09:46:35;;;;;;;3.97;2.38;;;19.20;99.90;;;19.91;55.18;98907.47;10452929;28;20256;-82
2023/09/24 09:51:45;;;;;;;2.55;2.22;;;19.40;99.90;;;20.01;55.32;98908.72;10452139;28;20240;-82
2023/09/24 09:56:50;;;;;;;4.50;2.42;;;19.60;99.90;;;19.99;53.24;98902.56;10459145;28;20217;-81
2023/09/24 10:01:55;;;;;;;2.25;2.05;;;19.70;98.30;;;20.21;51.37;98907.72;10451848;28;20635;-82
2023/09/24 10:06:58;;;;;;;2.42;2.17;;;19.70;97.30;;;19.93;52.66;98910.13;10443555;28;20605;-81
2023/09/24 10:12:06;;;;;;;3.50;2.28;;;19.50;97.60;;;20.13;51.66;98897.88;10441498;28;20256;-83
2023/09/24 10:17:29;;;;;;;2.42;2.22;;;19.70;97.10;;;20.00;47.34;98901.72;10442024;28;20229;-83
2023/09/24 10:22:35;;;;;;;3.15;2.30;;;19.50;93.70;;;19.59;48.50;98898.44;10451251;28;20679;-83
2023/09/24 10:28:02;;;;;;;2.55;2.13;;;19.30;94.10;;;20.14;48.41;98890.13;10454224;28;20229;-82
2023/09/24 10:33:13;;;;;;;2.47;1.83;;;19.70;94.20;;;19.78;43.26;98898.34;10454654;28;20467;-84
2023/09/24 10:38:17;;;;;;;4.30;2.20;;;19.50;90.00;;;19.97;46.81;98884.34;10449648;28;20245;-84
2023/09/24 10:43:20;;;;;;;2.88;2.03;;;19.40;93.20;;;20.02;47.51;98889.69;10451362;28;20560;-82
2023/09/24 10:48:25;;;;;;;2.63;2.08;;;19.50;93.30;;;20.04;46.59;98885.47;10451561;28;20615;-82
2023/09/24 10:53:42;;;;;;;2.28;2.08;;;19.70;92.50;;;20.16;45.81;98882.41;10459898;28;20344;-82
2023/09/24 10:58:50;;;;;;;3.28;2.00;;;19.60;92.10;;;20.30;43.84;98877.72;10451448;28;20752;-83
2023/09/24 11:03:54;;;;;;;2.42;2.05;;;19.80;90.20;;;20.18;45.06;98873.84;10451287;28;20229;-81
2023/09/24 11:09:16;;;;;;;2.20;2.00;;;19.80;91.10;;;20.04;44.72;98877.66;10434002;28;20267;-82
2023/09/24 11:14:24;;;;;;;2.05;1.85;;;19.60;90.60;;;20.01;42.36;98880.16;10431171;28;20745;-81
2023/09/24 11:19:45;;;;;;;2.88;2.30;;;19.60;87.80;;;19.88;41.79;98873.63;10442293;28;20690;-83
2023/09/24 11:24:50;;;;;;;2.88;2.05;;;19.40;87.20;;;20.13;42.97;98866.72;10429680;28;20248;-82
2023/09/24 11:30:00;;;;;;;2.92;2.20;;;19.50;89.20;;;19.74;42.24;98857.56;10436435;28;20254;-82
2023/09/24 11:35:12;;;;;;;2.40;2.20;;;19.30;86.80;;;19.94;42.44;98854.78;10439329;28;21015;-83
2023/09/24 11:40:28;;;;;;;2.55;2.35;;;19.40;87.70;;;20.16;42.13;98849.53;10441970;28;20265;-81
2023/09/24 11:45:42;;;;;;;2.22;2.03;;;19.60;87.50;;;20.06;41.20;98844.88;10438968;28;20330;-80
2023/09/24 11:50:49;;;;;;;2.30;2.10;;;19.50;85.60;;;20.07;42.21;98830.19;10447116;28;20246;-82
2023/09/24 11:55:54;;;;;;;2.15;1.95;;;19.50;86.90;;;20.19;40.74;98831.47;10431168;28;20229;-83
2023/09/24 12:00:59;;;;;;;2.47;1.75;;;19.50;85.40;;;19.77;40.66;98821.34;10443243;28;20279;-81
2023/09/24 12:06:04;;;;;;;2.00;1.90;;;19.30;84.60;;;20.00;43.35;98823.84;10424758;28;20233;-80
2023/09/24 12:11:08;;;;;;;2.28;1.80;;;19.30;89.10;;;20.13;42.09;98818.28;10425463;28;20322;-83
2023/09/24 12:16:11;;;;;;;2.60;2.05;;;19.50;87.50;;;20.27;41.65;98817.88;10434118;28;20230;-82
2023/09/24 12:21:16;;;;;;;2.20;2.00;;;19.60;86.50;;;20.16;41.96;98814.91;10424187;28;20236;-83
2023/09/24 12:26:19;;;;;;;2.03;1.90;;;19.40;86.60;;;20.38;39.81;98816.53;10421544;28;20229;-80
2023/09/24 12:31:23;;;;;;;1.90;1.70;;;19.70;83.40;;;20.27;39.41;98810.97;10422772;28;20224;-82
2023/09/24 12:36:30;;;;;;;2.05;1.83;;;19.60;82.80;;;20.08;39.62;98814.63;10425159;28;20293;-83
2023/09/24 12:41:33;;;;;;;2.20;1.90;;;19.50;82.50;;;20.04;39.17;98805.00;10428613;28;20225;-83
2023/09/24 12:46:36;;;;;;;2.42;2.00;;;19.40;82.30;;;20.05;40.88;98805.88;10423188;28;20279;-79
2023/09/24 12:51:41;;;;;;;2.47;2.00;;;19.40;84.00;;;20.08;39.60;98800.78;10415961;28;20240;-80
2023/09/24 12:56:44;;;;;;;2.45;2.15;;;19.40;82.50;;;20.11;39.28;98798.28;10421089;28;20230;-79
2023/09/24 13:01:48;;;;;;;2.35;2.13;;;19.40;81.70;;;20.10;37.89;98796.53;10430521;28;20232;-79
2023/09/24 13:06:52;;;;;;;2.35;1.95;;;19.50;79.40;;;20.08;39.68;98785.22;10427094;28;20705;-83
2023/09/24 13:11:58;;;;;;;2.05;1.92;;;19.30;82.20;;;19.95;40.06;98789.97;10429003;28;20233;-83
2023/09/24 13:17:01;;;;;;;2.10;2.00;;;19.30;83.90;;;20.08;38.02;98787.81;10429822;28;20228;-82
2023/09/24 13:22:06;;;;;;;2.53;2.00;;;19.30;79.80;;;19.97;38.69;98782.22;10433726;28;20229;-81
2023/09/24 13:27:09;;;;;;;2.38;2.17;;;19.30;80.10;;;20.01;38.76;98776.34;10431557;28;20230;-82
2023/09/24 13:32:13;;;;;;;2.28;2.08;;;19.40;81.20;;;20.13;38.75;98784.53;10436498;28;20912;-81
2023/09/24 13:37:17;;;;;;;2.25;2.10;;;19.50;80.90;;;19.87;40.31;98777.56;10447242;28;20257;-82
2023/09/24 13:42:21;;;;;;;3.13;2.22;;;19.20;83.20;;;19.90;40.03;98765.56;10446971;28;20275;-81
2023/09/24 13:47:24;;;;;;;3.13;2.13;;;19.30;82.30;;;20.11;39.57;98765.41;10455247;28;20811;-82
2023/09/24 13:52:29;;;;;;;3.13;2.28;;;19.50;81.60;;;19.95;40.42;98783.91;10442498;28;20333;-81
2023/09/24 13:57:32;;;;;;;2.72;2.10;;;19.40;82.60;;;19.97;40.54;98771.84;10427023;28;20225;-82
2023/09/24 14:02:36;;;;;;;2.17;2.00;;;19.50;83.00;;;19.80;41.88;98759.19;10434470;28;20252;-82
2023/09/24 14:07:41;;;;;;;2.22;2.03;;;19.10;85.10;;;19.99;42.24;98770.19;10436973;28;20271;-81
2023/09/24 14:12:45;;;;;;;2.58;2.38;;;19.30;85.80;;;19.96;41.64;98764.91;10432847;28;20232;-81
2023/09/24 14:17:49;;;;;;;2.80;2.38;;;19.30;84.80;;;20.00;41.30;98767.66;10425050;28;20302;-78
2023/09/24 14:23:13;;;;;;;2.30;2.08;;;19.40;84.10;;;19.91;40.38;98769.94;10425684;28;20221;-79
2023/09/24 14:28:17;;;;;;;2.25;2.05;;;19.30;82.60;;;19.77;41.92;98759.09;10423229;28;20225;-79
2023/09/24 14:33:20;;;;;;;2.30;2.10;;;19.10;84.80;;;20.14;41.42;98757.72;10416250;28;20254;-80
2023/09/24 14:38:26;;;;;;;2.53;2.33;;;19.40;84.60;;;19.75;41.03;98754.69;10430676;28;20229;-81
2023/09/24 14:43:29;;;;;;;2.42;2.20;;;19.20;83.10;;;19.78;40.30;98760.84;10430282;28;20292;-80
2023/09/24 14:48:33;;;;;;;2.55;1.90;;;19.10;82.10;;;19.80;41.15;98748.81;10446155;28;20245;-82
2023/09/24 14:53:38;;;;;;;2.30;2.15;;;19.10;84.00;;;19.63;40.02;98744.72;10430006;28;20840;-81
2023/09/24 14:58:41;;;;;;;2.45;2.20;;;19.00;81.90;;;19.65;41.43;98748.25;10419443;28;20229;-79
2023/09/24 15:03:45;;;;;;;2.63;2.42;;;19.10;83.80;;;19.91;39.62;98756.94;10423006;28;20302;-81
2023/09/24 15:08:50;;;;;;;3.25;2.33;;;19.30;81.50;;;19.83;39.09;98752.31;10428174;28;20287;-80
2023/09/24 15:13:53;;;;;;;2.38;2.17;;;19.30;79.20;;;19.57;39.18;98741.88;10423436;28;20275;-82
2023/09/24 15:18:57;;;;;;;2.30;2.10;;;19.00;80.10;;;19.70;39.48;98746.72;10422375;28;20224;-80
2023/09/24 15:24:02;;;;;;;2.47;2.00;;;18.90;81.20;;;19.84;38.35;98748.91;10422049;28;20328;-79
2023/09/24 15:29:05;;;;;;;2.28;2.05;;;19.20;78.90;;;19.59;38.70;98748.00;10420729;28;20225;-83
2023/09/24 15:34:08;;;;;;;1.90;1.80;;;19.00;78.70;;;19.61;39.25;98738.59;10417142;28;20771;-79
2023/09/24 15:39:13;;;;;;;2.30;2.10;;;18.90;80.50;;;19.73;40.32;98736.44;10422574;28;20596;-79
2023/09/24 15:44:17;;;;;;;2.35;2.13;;;19.00;82.20;;;19.69;39.69;98734.59;10421469;28;20329;-82
2023/09/24 15:49:20;;;;;;;4.70;2.45;;;19.00;80.60;;;19.50;39.88;98738.19;10417748;28;20264;-80
2023/09/24 15:54:25;;;;;;;2.58;2.20;;;18.70;81.00;;;19.44;41.88;98737.09;10421174;28;20229;-81
2023/09/24 15:59:28;;;;;;;2.35;2.15;;;18.60;85.20;;;19.43;42.83;98736.22;10417421;28;20247;-81
2023/09/24 16:04:31;;;;;;;2.75;1.88;;;18.70;85.80;;;19.16;43.54;98732.59;10419312;28;20229;-80
2023/09/24 16:09:36;;;;;;;2.78;2.33;;;18.50;86.60;;;19.01;44.00;98722.56;10420176;28;20768;-80
2023/09/24 16:14:39;;;;;;;3.33;2.80;;;18.40;87.10;;;19.08;43.14;98716.75;10417471;28;20310;-80
2023/09/24 16:19:43;;;;;;;3.10;2.53;;;18.40;86.90;;;18.92;42.60;98724.81;10426473;28;20312;-79
2023/09/24 16:24:51;;;;;;;2.72;2.53;;;18.30;85.30;;;19.05;42.96;98722.72;10421383;28;20229;-81
2023/09/24 16:29:54;;;;;;;5.78;5.03;;;18.40;85.80;;;18.61;43.67;98739.13;10419305;28;20256;-80
2023/09/24 16:34:57;;;;;;;2.90;2.70;;;18.20;85.50;;;18.33;44.50;98738.00;10416815;28;20227;-80
2023/09/24 16:40:02;;;;;;;2.60;2.28;;;17.80;87.50;;;18.22;44.88;98744.44;10423523;28;20225;-79
2023/09/24 16:45:07;;;;;;;3.38;2.40;;;17.60;88.00;;;18.12;45.52;98739.72;10421484;28;20221;-79
2023/09/24 16:50:11;;;;;;;2.70;2.50;;;17.40;89.60;;;18.00;46.31;98743.56;10429334;28;20229;-81
2023/09/24 16:55:16;;;;;;;2.53;2.33;;;17.20;90.40;;;18.01;47.45;98749.63;10430527;28;21079;-81
2023/09/24 17:00:19;;;;;;;3.10;2.80;;;17.10;91.50;;;17.90;48.33;98743.09;10420093;28;20324;-80
2023/09/24 17:05:23;;;;;;;3.10;2.80;;;17.00;92.30;;;17.60;51.18;98737.47;10432468;28;20230;-83
2023/09/24 17:10:28;;;;;;;3.13;2.88;;;16.70;94.50;;;17.21;52.96;98743.53;10429422;28;20224;-82
2023/09/24 17:15:32;;;;;;;4.75;3.00;;;16.20;95.80;;;16.91;53.48;98735.25;10426324;28;20226;-81
2023/09/24 17:20:36;;;;;;;3.38;3.08;;;16.10;95.60;;;16.77;53.42;98741.47;10427806;28;20734;-82
2023/09/24 17:25:41;;;;;;;2.70;2.53;;;15.90;96.60;;;16.61;53.89;98729.53;10424156;28;20229;-81
2023/09/24 17:30:44;;;;;;;3.45;2.65;;;15.70;96.40;;;16.41;57.25;98741.47;10421444;28;20226;-81
2023/09/24 17:35:50;;;;;;;3.40;3.10;;;15.40;99.40;;;16.09;59.99;98743.38;10419788;28;20256;-81
2023/09/24 17:40:55;;;;;;;3.10;2.80;;;15.10;99.90;;;15.65;62.19;98744.56;10423646;28;20225;-80
2023/09/24 17:46:01;;;;;;;3.40;3.17;;;14.80;99.90;;;15.52;61.94;98748.19;10421970;28;20265;-80
2023/09/24 17:51:07;;;;;;;3.03;2.72;;;14.60;99.90;;;15.33;64.33;98742.88;10432055;28;20221;-80
2023/09/24 17:56:13;;;;;;;3.30;3.00;;;14.30;99.90;;;15.12;65.21;98745.19;10427450;28;20251;-82
2023/09/24 18:01:17;;;;;;;3.03;2.70;;;14.10;99.90;;;14.84;65.86;98748.84;10431621;28;20236;-83
2023/09/24 18:06:20;;;;;;;2.85;2.65;;;13.90;99.90;;;14.75;65.74;98750.94;10429724;28;20293;-81
2023/09/24 18:11:25;;;;;;;2.88;2.67;;;13.80;99.90;;;14.54;68.25;98748.06;10442024;28;20285;-81
2023/09/24 18:16:29;;;;;;;3.22;2.90;;;13.60;99.90;;;14.24;68.74;98742.03;10429443;28;20217;-82
2023/09/24 18:21:32;;;;;;;3.30;2.92;;;13.30;99.90;;;14.02;70.73;98754.44;10436682;28;20229;-83
2023/09/24 18:26:37;;;;;;;2.60;2.40;;;13.20;99.90;;;13.86;72.59;98752.69;10433562;28;20217;-83
2023/09/24 18:31:40;;;;;;;3.33;3.00;;;13.00;99.90;;;13.79;72.85;98760.81;10435254;28;20321;-82
2023/09/24 18:36:44;;;;;;;4.25;3.10;;;12.90;99.90;;;13.66;73.16;98764.38;10424624;28;20722;-82
2023/09/24 18:41:49;;;;;;;3.47;3.05;;;12.80;99.90;;;13.45;73.67;98766.53;10432394;28;20229;-82
2023/09/24 18:46:53;;;;;;;3.35;3.00;;;12.60;99.90;;;13.25;75.32;98765.31;10427360;28;20611;-83
2023/09/24 18:51:56;;;;;;;3.78;2.60;;;12.50;99.90;;;13.12;75.38;98768.78;10429088;28;20287;-83
2023/09/24 18:57:01;;;;;;;3.88;2.92;;;12.30;99.90;;;13.05;75.61;98777.78;10426037;28;20733;-83
2023/09/24 19:02:05;;;;;;;3.10;2.90;;;12.30;99.90;;;12.74;76.75;98772.41;10432631;28;20248;-82
2023/09/24 19:07:11;;;;;;;3.40;2.70;;;12.00;99.90;;;12.72;76.77;98771.41;10430504;28;20785;-82
2023/09/24 19:12:16;;;;;;;2.95;2.63;;;12.00;99.90;;;12.74;77.19;98779.22;10419692;28;20312;-81
2023/09/24 19:17:19;;;;;;;3.05;2.85;;;11.90;99.90;;;12.67;78.92;98772.78;10421828;28;20328;-82
2023/09/24 19:22:24;;;;;;;3.38;3.08;;;11.90;99.90;;;12.67;78.97;98775.34;10426329;28;20910;-81
2023/09/24 19:27:29;;;;;;;3.50;3.20;;;11.80;99.90;;;12.42;80.22;98772.94;10434205;28;20224;-81
2023/09/24 19:32:32;;;;;;;4.47;3.55;;;11.60;99.90;;;12.20;81.00;98769.75;10419816;28;20232;-84
2023/09/24 19:37:36;;;;;;;3.67;3.38;;;11.40;99.90;;;12.14;81.51;98776.25;10428946;28;20241;-84
2023/09/24 19:42:40;;;;;;;4.40;3.35;;;11.30;99.90;;;11.98;81.97;98783.72;10423232;28;20244;-82
2023/09/24 19:47:44;;;;;;;3.47;3.17;;;11.30;99.90;;;11.88;82.85;98778.78;10426237;28;20225;-83
2023/09/24 19:52:48;;;;;;;3.13;2.83;;;11.10;99.90;;;11.84;82.72;98785.31;10424234;28;20300;-82
2023/09/24 19:57:53;;;;;;;4.32;3.30;;;11.10;99.90;;;11.66;83.45;98776.41;10425383;28;20232;-83
2023/09/24 20:02:56;;;;;;;3.88;3.47;;;11.00;99.90;;;11.60;83.60;98789.69;10423641;28;20236;-83
2023/09/24 20:08:00;;;;;;;4.35;3.90;;;10.90;99.90;;;11.47;84.96;98784.50;10423200;28;20316;-80
2023/09/24 20:13:05;;;;;;;4.00;3.60;;;10.80;99.90;;;11.36;85.18;98780.31;10418968;28;20283;-81
2023/09/24 20:18:10;;;;;;;4.05;3.65;;;10.70;99.90;;;11.36;85.14;98785.44;10419775;28;20274;-82
2023/09/24 20:23:13;;;;;;;4.28;3.50;;;10.70;99.90;;;11.36;86.41;98788.00;10424146;28;20234;-83
2023/09/24 20:28:19;;;;;;;4.00;3.70;;;10.70;99.90;;;11.28;86.92;98796.03;10421340;28;20230;-84
2023/09/24 20:33:29;;;;;;;4.07;3.50;;;10.60;99.90;;;11.35;88.49;98786.22;10420529;28;20226;-85
2023/09/24 20:38:44;;;;;;;4.13;3.53;;;10.60;99.90;;;11.35;88.56;98796.47;10423831;28;20284;-83
2023/09/24 20:43:51;;;;;;;3.88;3.58;;;10.30;99.90;;;11.14;89.79;98799.31;10424701;28;20257;-81
2023/09/24 20:48:55;;;;;;;3.80;3.50;;;10.20;99.90;;;11.01;90.53;98801.78;10416282;28;20317;-81
2023/09/24 20:54:01;;;;;;;3.97;3.50;;;10.20;99.90;;;10.87;91.14;98798.25;10421610;28;20255;-85
2023/09/24 20:59:27;;;;;;;4.10;3.63;;;10.00;99.90;;;10.78;91.34;98806.16;10417814;28;20616;-82
2023/09/24 21:04:31;;;;;;;4.03;3.38;;;9.90;99.90;;;10.76;91.49;98805.19;10428955;28;20307;-83
2023/09/24 21:09:34;;;;;;;4.03;3.72;;;9.90;99.90;;;10.73;91.37;98802.41;10427072;28;20248;-85
2023/09/24 21:14:39;;;;;;;3.92;3.53;;;9.80;99.90;;;10.57;92.51;98796.94;10434102;28;20824;-84